Accueil
METAR-TAF:

METAR-TAF

Aéroports :

Aéroport de Valladolid

Valladolid, Espagne

latitude: 41-43N, longitude: 004-51W, altitude: 849 m

Observation

Le bulletin a été fait il y a 40 minutes, à 12:30 UTC
Vent 9 kt de est, variant entre nord-est et est/sud-est
Température 27°C
Humidité 16%
Pression 1023 hPa
Visibilité 10 km ou plus
pas de nuages en-dessous de 1500 mètres et pas de cumulonimbus.

METAR: LEVD 221230Z 08009KT 040V120 CAVOK 27/M01 Q1023

Heure: 15:10 (13:10 UTC)

Prévision

Le bulletin a été fait il y a 2 heures et 10 minutes, à 11:00 UTC
Prévision valable du 22 à 12 UTC au 23 à 12 UTC
Vent 10 kt de est/nord-est
Visibilité 10 km ou plus
pas de nuages en-dessous de 1500 mètres et pas de cumulonimbus.
Evoluant progressivement
du 23 à 05 UTC au 23 à 07 UTC
Vent 10 kt de sud/sud-est

TAF: LEVD 221100Z 2212/2312 07010KT CAVOK TX29/2216Z TN13/2306Z BECMG 2305/2307 15010KT

Observations et prévisions météorologiques de plus de 4000 aéroports (messages METAR et TAF).

Les stations disponibles sont représentées par des disques jaunes et rouges sur la carte.

Passer la souris dessus pour voir le nom de la station.

Cliquer dessus pour voir les observations et prévisions météorologiques.

Pour changer de carte: cliquez sur les boutons verts avec une croix noire pour zoomer, sur le bouton vert avec un tiret pour effectuer un zoom arrière, ou sur les flèches vertes pour les cartes adjacentes.


METAR-TAF: